Time;durP1;ratioP1;P1;durP2;ratioP2;P2;SDS_P1;SDS_P2;PMS_P1;PMS_P2;Temp;Humidity;BMP_temperature;BMP_pressure;BME280_temperature;BME280_humidity;BME280_pressure;Samples;Min_cycle;Max_cycle;Signal;HPM_P1;HPM_P2
2023/07/17 00:01:28;;;;;;;;;;;;;;;15.54;100.00;101503.66;4992573;28;20335;-74
2023/07/17 00:03:53;;;;;;;;;;;;;;;15.46;100.00;101504.34;4992108;28;20354;-74
2023/07/17 00:06:19;;;;;;;;;;;;;;;15.38;100.00;101496.88;4993274;28;20195;-73
2023/07/17 00:08:44;;;;;;;;;;;;;;;15.28;100.00;101509.53;4973605;28;20024;-74
2023/07/17 00:11:09;;;;;;;;;;;;;;;15.23;100.00;101509.91;4993042;28;19925;-74
2023/07/17 00:13:34;;;;;;;;;;;;;;;15.21;100.00;101513.75;4994185;28;19929;-72
2023/07/17 00:15:59;;;;;;;;;;;;;;;15.17;100.00;101515.88;4998220;28;19932;-74
2023/07/17 00:18:25;;;;;;;;;;;;;;;15.10;100.00;101520.09;4998789;28;20135;-75
2023/07/17 00:20:50;;;;;;;;;;;;;;;15.04;100.00;101523.31;4981810;28;20039;-74
2023/07/17 00:23:15;;;;;;;;;;;;;;;15.07;100.00;101520.34;4997099;28;19973;-73
2023/07/17 00:25:40;;;;;;;;;;;;;;;15.09;100.00;101523.78;5000258;28;20015;-74
2023/07/17 00:28:06;;;;;;;;;;;;;;;15.07;100.00;101517.66;4995526;28;20040;-73
2023/07/17 00:30:31;;;;;;;;;;;;;;;15.04;100.00;101509.81;4997876;28;20738;-74
2023/07/17 00:32:56;;;;;;;;;;;;;;;15.03;100.00;101511.66;4979878;28;19948;-74
2023/07/17 00:35:21;;;;;;;;;;;;;;;15.05;100.00;101517.78;4995593;28;19929;-74
2023/07/17 00:37:46;;;;;;;;;;;;;;;14.98;100.00;101525.56;4975121;28;19921;-74
2023/07/17 00:40:12;;;;;;;;;;;;;;;14.97;100.00;101523.84;5003391;28;19925;-74
2023/07/17 00:42:38;;;;;;;;;;;;;;;14.85;100.00;101525.75;4959819;28;19929;-74
2023/07/17 00:45:03;;;;;;;;;;;;;;;14.84;100.00;101524.03;4988477;28;20234;-73
2023/07/17 00:47:28;;;;;;;;;;;;;;;14.79;100.00;101522.72;4978249;28;19964;-73
2023/07/17 00:49:54;;;;;;;;;;;;;;;14.79;100.00;101520.03;4989707;28;19925;-73
2023/07/17 00:52:19;;;;;;;;;;;;;;;14.78;100.00;101519.19;4979627;28;19925;-73
2023/07/17 00:54:44;;;;;;;;;;;;;;;14.69;100.00;101514.53;4986291;28;19921;-73
2023/07/17 00:57:09;;;;;;;;;;;;;;;14.64;100.00;101530.25;4995656;28;20023;-73
2023/07/17 00:59:35;;;;;;;;;;;;;;;14.61;100.00;101531.38;5006833;28;20055;-74
2023/07/17 01:02:00;;;;;;;;;;;;;;;14.54;100.00;101530.16;4964353;28;19976;-74
2023/07/17 01:04:25;;;;;;;;;;;;;;;14.52;100.00;101535.72;4961572;28;19967;-73
2023/07/17 01:06:50;;;;;;;;;;;;;;;14.52;100.00;101546.53;4973649;28;19921;-75
2023/07/17 01:09:16;;;;;;;;;;;;;;;14.53;100.00;101550.06;4975962;28;19921;-73
2023/07/17 01:11:41;;;;;;;;;;;;;;;14.50;100.00;101544.91;4982755;28;19959;-77
2023/07/17 01:14:13;;;;;;;;;;;;;;;14.51;100.00;101539.41;4966069;28;20457;-74
2023/07/17 01:16:38;;;;;;;;;;;;;;;14.40;100.00;101536.72;5008247;28;19997;-73
2023/07/17 01:19:04;;;;;;;;;;;;;;;14.34;100.00;101548.03;5004820;28;20028;-76
2023/07/17 01:21:29;;;;;;;;;;;;;;;14.44;100.00;101549.00;4978190;28;19931;-73
2023/07/17 01:23:56;;;;;;;;;;;;;;;14.44;100.00;101550.81;4991096;28;19925;-73
2023/07/17 01:26:22;;;;;;;;;;;;;;;14.44;100.00;101556.22;4996143;28;20323;-75
2023/07/17 01:28:47;;;;;;;;;;;;;;;14.43;100.00;101559.94;4982824;28;20321;-74
2023/07/17 01:31:12;;;;;;;;;;;;;;;14.48;100.00;101557.69;4993650;28;20021;-74
2023/07/17 01:33:37;;;;;;;;;;;;;;;14.45;100.00;101553.41;4988894;28;20196;-73
2023/07/17 01:36:03;;;;;;;;;;;;;;;14.45;100.00;101545.31;4994424;28;19926;-73
2023/07/17 01:38:29;;;;;;;;;;;;;;;14.50;100.00;101548.50;4977771;28;20343;-73
2023/07/17 01:40:54;;;;;;;;;;;;;;;14.46;100.00;101554.25;4987734;28;20253;-75
2023/07/17 01:43:19;;;;;;;;;;;;;;;14.46;100.00;101546.16;4995446;28;20209;-73
2023/07/17 01:45:45;;;;;;;;;;;;;;;14.53;100.00;101555.47;4995904;28;20008;-73
2023/07/17 01:48:10;;;;;;;;;;;;;;;14.46;100.00;101548.84;4995706;28;20016;-73
2023/07/17 01:50:35;;;;;;;;;;;;;;;14.54;100.00;101559.88;4995110;28;19952;-75
2023/07/17 01:53:00;;;;;;;;;;;;;;;14.51;100.00;101557.44;4976356;28;20048;-73
2023/07/17 01:55:26;;;;;;;;;;;;;;;14.37;100.00;101564.00;5000942;28;19929;-76
2023/07/17 01:57:51;;;;;;;;;;;;;;;14.36;100.00;101556.88;4996001;28;20218;-73
2023/07/17 02:00:17;;;;;;;;;;;;;;;14.45;100.00;101557.94;4978389;28;19930;-73
2023/07/17 02:02:43;;;;;;;;;;;;;;;14.39;100.00;101551.22;4996227;28;20025;-72
2023/07/17 02:05:08;;;;;;;;;;;;;;;14.35;100.00;101558.72;4997502;28;20019;-74
2023/07/17 02:07:33;;;;;;;;;;;;;;;14.35;100.00;101549.75;4995719;28;19926;-73
2023/07/17 02:09:58;;;;;;;;;;;;;;;14.36;100.00;101548.75;4994555;28;20397;-74
2023/07/17 02:12:23;;;;;;;;;;;;;;;14.30;100.00;101543.91;4995176;28;20083;-73
2023/07/17 02:14:49;;;;;;;;;;;;;;;14.29;100.00;101553.81;4977353;28;19933;-72
2023/07/17 02:17:14;;;;;;;;;;;;;;;14.32;100.00;101550.00;4990265;28;19933;-75
2023/07/17 02:19:40;;;;;;;;;;;;;;;14.27;100.00;101541.44;4995715;28;20210;-73
2023/07/17 02:22:05;;;;;;;;;;;;;;;14.29;100.00;101542.19;4998799;28;19952;-72
2023/07/17 02:24:30;;;;;;;;;;;;;;;14.21;100.00;101543.66;4995152;28;19925;-73
2023/07/17 02:26:58;;;;;;;;;;;;;;;14.20;100.00;101552.75;4996538;28;19926;-74
2023/07/17 02:29:23;;;;;;;;;;;;;;;14.23;100.00;101557.91;4996267;28;19956;-73
2023/07/17 02:31:49;;;;;;;;;;;;;;;14.21;100.00;101559.00;4995544;28;20376;-74
2023/07/17 02:34:14;;;;;;;;;;;;;;;14.21;100.00;101557.16;4995456;28;20383;-73
2023/07/17 02:36:39;;;;;;;;;;;;;;;14.19;100.00;101561.81;4996627;28;19961;-75
2023/07/17 02:39:04;;;;;;;;;;;;;;;14.19;100.00;101563.66;4997107;28;19953;-73
2023/07/17 02:41:30;;;;;;;;;;;;;;;14.15;100.00;101560.34;4996527;28;20365;-74
2023/07/17 02:43:55;;;;;;;;;;;;;;;14.10;100.00;101563.44;4996250;28;19930;-73
2023/07/17 02:46:20;;;;;;;;;;;;;;;14.15;100.00;101563.06;4996693;28;19963;-72
2023/07/17 02:48:46;;;;;;;;;;;;;;;14.14;100.00;101574.84;4973539;28;20016;-73
2023/07/17 02:51:11;;;;;;;;;;;;;;;14.09;100.00;101572.53;4990244;28;19929;-73
2023/07/17 02:53:36;;;;;;;;;;;;;;;14.06;100.00;101571.91;5002897;28;19929;-72
2023/07/17 02:56:02;;;;;;;;;;;;;;;14.02;100.00;101574.00;4995803;28;19918;-73
2023/07/17 02:58:28;;;;;;;;;;;;;;;14.00;100.00;101583.22;4977993;28;19976;-73
2023/07/17 03:00:53;;;;;;;;;;;;;;;13.92;100.00;101586.50;4994381;28;20337;-72
2023/07/17 03:03:18;;;;;;;;;;;;;;;13.94;100.00;101581.84;4996358;28;19925;-72
2023/07/17 03:05:43;;;;;;;;;;;;;;;13.95;100.00;101581.75;4998217;28;19991;-74
2023/07/17 03:08:09;;;;;;;;;;;;;;;13.94;100.00;101590.81;4996244;28;20020;-72
2023/07/17 03:10:34;;;;;;;;;;;;;;;13.93;100.00;101591.81;4998654;28;19929;-73
2023/07/17 03:12:59;;;;;;;;;;;;;;;13.97;100.00;101595.09;4997559;28;20367;-73
2023/07/17 03:15:24;;;;;;;;;;;;;;;13.91;100.00;101593.75;4998764;28;20320;-72
2023/07/17 03:17:50;;;;;;;;;;;;;;;13.86;100.00;101595.97;4989404;28;19932;-74
2023/07/17 03:20:17;;;;;;;;;;;;;;;13.76;100.00;101592.31;4996391;28;19936;-73
2023/07/17 03:22:42;;;;;;;;;;;;;;;13.74;100.00;101596.97;4994315;28;20351;-72
2023/07/17 03:25:07;;;;;;;;;;;;;;;13.79;100.00;101590.22;4995639;28;20374;-72
2023/07/17 03:27:33;;;;;;;;;;;;;;;13.75;100.00;101602.22;4996035;28;20707;-72
2023/07/17 03:29:58;;;;;;;;;;;;;;;13.70;100.00;101590.94;4989749;28;19921;-73
2023/07/17 03:32:23;;;;;;;;;;;;;;;13.61;100.00;101587.13;4995086;28;20276;-72
2023/07/17 03:34:48;;;;;;;;;;;;;;;13.65;100.00;101603.91;4979807;28;20496;-74
2023/07/17 03:37:14;;;;;;;;;;;;;;;13.65;100.00;101607.50;4997210;28;20603;-73
2023/07/17 03:39:39;;;;;;;;;;;;;;;13.60;100.00;101607.00;4995664;28;20050;-72
2023/07/17 03:42:10;;;;;;;;;;;;;;;13.60;100.00;101600.75;4988579;28;19926;-73
2023/07/17 03:44:35;;;;;;;;;;;;;;;13.56;100.00;101601.97;4999396;28;19968;-73
2023/07/17 03:47:00;;;;;;;;;;;;;;;13.57;100.00;101603.69;4994485;28;20040;-72
2023/07/17 03:49:25;;;;;;;;;;;;;;;13.56;100.00;101599.28;4996488;28;20388;-73
2023/07/17 03:51:50;;;;;;;;;;;;;;;13.56;100.00;101597.41;4997814;28;20413;-76
2023/07/17 03:54:16;;;;;;;;;;;;;;;13.55;100.00;101600.25;5009841;28;20492;-72
2023/07/17 03:56:41;;;;;;;;;;;;;;;13.55;100.00;101602.94;5000175;28;20342;-72
2023/07/17 03:59:06;;;;;;;;;;;;;;;13.49;100.00;101604.28;4997359;28;20366;-72
2023/07/17 04:01:31;;;;;;;;;;;;;;;13.51;100.00;101610.41;4985180;28;20272;-71
2023/07/17 04:03:57;;;;;;;;;;;;;;;13.53;100.00;101613.00;4997254;28;20290;-72
2023/07/17 04:06:22;;;;;;;;;;;;;;;13.49;100.00;101607.84;4981538;28;20389;-72
2023/07/17 04:08:47;;;;;;;;;;;;;;;13.44;100.00;101609.19;4997308;28;19929;-72
2023/07/17 04:11:14;;;;;;;;;;;;;;;13.29;100.00;101587.78;4995400;28;19925;-72
2023/07/17 04:13:39;;;;;;;;;;;;;;;13.45;100.00;101621.69;4994620;28;20785;-72
2023/07/17 04:16:05;;;;;;;;;;;;;;;13.43;100.00;101626.34;4982291;28;19921;-71
2023/07/17 04:18:30;;;;;;;;;;;;;;;13.43;100.00;101632.59;4990996;28;20059;-73
2023/07/17 04:20:55;;;;;;;;;;;;;;;13.42;100.00;101624.63;5001236;28;19959;-73
2023/07/17 04:23:20;;;;;;;;;;;;;;;13.45;100.00;101624.38;5002594;28;19925;-71
2023/07/17 04:25:46;;;;;;;;;;;;;;;13.49;100.00;101631.28;4991701;28;20016;-72
2023/07/17 04:28:11;;;;;;;;;;;;;;;13.48;100.00;101630.41;4986507;28;19931;-73
2023/07/17 04:30:36;;;;;;;;;;;;;;;13.53;100.00;101632.72;4992416;28;19944;-72
2023/07/17 04:33:02;;;;;;;;;;;;;;;13.55;100.00;101633.47;5000828;28;19960;-72
2023/07/17 04:35:27;;;;;;;;;;;;;;;13.54;100.00;101633.59;4994004;28;19975;-72
2023/07/17 04:37:53;;;;;;;;;;;;;;;13.58;100.00;101635.94;5000572;28;19922;-73
2023/07/17 04:40:19;;;;;;;;;;;;;;;13.65;100.00;101644.41;4979145;28;19930;-73
2023/07/17 04:42:44;;;;;;;;;;;;;;;13.72;100.00;101634.84;4962723;28;19921;-73
2023/07/17 04:45:11;;;;;;;;;;;;;;;13.76;100.00;101643.59;4987970;28;20423;-72
2023/07/17 04:47:36;;;;;;;;;;;;;;;13.78;100.00;101639.78;5001644;28;19949;-72
2023/07/17 04:50:01;;;;;;;;;;;;;;;13.85;100.00;101652.78;4996409;28;19972;-73
2023/07/17 04:52:27;;;;;;;;;;;;;;;13.97;100.00;101657.19;5004091;28;20379;-72
2023/07/17 04:54:52;;;;;;;;;;;;;;;13.96;100.00;101658.19;4996118;28;19925;-72
2023/07/17 04:57:17;;;;;;;;;;;;;;;13.99;100.00;101649.00;4995949;28;19917;-72
2023/07/17 04:59:42;;;;;;;;;;;;;;;14.07;100.00;101654.63;4998125;28;19963;-72
2023/07/17 05:02:08;;;;;;;;;;;;;;;14.04;100.00;101658.44;4995363;28;20020;-72
2023/07/17 05:04:33;;;;;;;;;;;;;;;14.11;100.00;101656.09;4994044;28;19929;-72
2023/07/17 05:06:58;;;;;;;;;;;;;;;14.12;100.00;101667.78;4998101;28;20358;-72
2023/07/17 05:09:23;;;;;;;;;;;;;;;14.09;100.00;101661.63;4992782;28;20383;-73
2023/07/17 05:11:49;;;;;;;;;;;;;;;14.20;100.00;101668.00;4994498;28;19921;-73
2023/07/17 05:14:15;;;;;;;;;;;;;;;14.30;100.00;101663.59;4972512;28;19930;-73
2023/07/17 05:16:40;;;;;;;;;;;;;;;14.36;100.00;101657.69;4993150;28;20436;-72
2023/07/17 05:19:05;;;;;;;;;;;;;;;14.45;100.00;101660.59;4976745;28;20355;-73
2023/07/17 05:21:30;;;;;;;;;;;;;;;14.53;100.00;101660.84;4995287;28;20614;-73
2023/07/17 05:23:55;;;;;;;;;;;;;;;14.47;100.00;101667.63;4976597;28;20349;-73
2023/07/17 05:26:21;;;;;;;;;;;;;;;14.54;100.00;101666.16;4996876;28;20361;-73
2023/07/17 05:28:47;;;;;;;;;;;;;;;14.58;100.00;101666.75;4997423;28;20279;-73
2023/07/17 05:31:12;;;;;;;;;;;;;;;14.64;100.00;101668.94;4996067;28;20249;-73
2023/07/17 05:33:37;;;;;;;;;;;;;;;14.75;100.00;101665.41;4996421;28;20115;-74
2023/07/17 05:36:02;;;;;;;;;;;;;;;14.65;100.00;101667.97;4996311;28;19925;-74
2023/07/17 05:38:28;;;;;;;;;;;;;;;14.74;100.00;101676.31;4997157;28;19926;-72
2023/07/17 05:40:59;;;;;;;;;;;;;;;14.83;100.00;101672.88;4992776;28;20394;-73
2023/07/17 05:43:25;;;;;;;;;;;;;;;14.87;100.00;101679.75;4993829;28;20286;-71
2023/07/17 05:45:50;;;;;;;;;;;;;;;15.02;100.00;101687.53;5008268;28;19948;-73
2023/07/17 05:48:15;;;;;;;;;;;;;;;15.11;100.00;101679.50;4999996;28;20314;-76
2023/07/17 05:50:41;;;;;;;;;;;;;;;15.19;100.00;101681.59;4973040;28;20418;-74
2023/07/17 05:53:06;;;;;;;;;;;;;;;15.35;100.00;101683.00;4994488;28;20452;-76
2023/07/17 05:55:31;;;;;;;;;;;;;;;15.35;100.00;101685.69;4996315;28;19936;-75
2023/07/17 05:57:57;;;;;;;;;;;;;;;15.49;100.00;101679.13;4995722;28;20360;-74
2023/07/17 06:00:22;;;;;;;;;;;;;;;15.48;100.00;101685.50;4974947;28;20011;-75
2023/07/17 06:02:47;;;;;;;;;;;;;;;15.46;100.00;101685.66;5008451;28;19926;-76
2023/07/17 06:05:13;;;;;;;;;;;;;;;15.41;100.00;101686.03;4996755;28;19926;-73
2023/07/17 06:07:38;;;;;;;;;;;;;;;15.51;100.00;101696.94;4997791;28;20270;-74
2023/07/17 06:10:03;;;;;;;;;;;;;;;15.56;100.00;101697.41;4988866;28;19976;-74
2023/07/17 06:12:29;;;;;;;;;;;;;;;15.62;100.00;101698.75;4999491;28;20400;-76
2023/07/17 06:14:54;;;;;;;;;;;;;;;15.63;100.00;101699.59;4993747;28;20351;-76
2023/07/17 06:17:19;;;;;;;;;;;;;;;15.79;100.00;101682.88;4978706;28;20320;-73
2023/07/17 06:19:44;;;;;;;;;;;;;;;15.92;100.00;101693.53;4993498;28;20052;-73
2023/07/17 06:22:09;;;;;;;;;;;;;;;16.08;100.00;101702.00;4996798;28;19941;-74
2023/07/17 06:24:35;;;;;;;;;;;;;;;16.17;100.00;101698.50;5000229;28;20142;-72
2023/07/17 06:27:00;;;;;;;;;;;;;;;16.13;100.00;101696.22;4995697;28;19951;-72
2023/07/17 06:29:25;;;;;;;;;;;;;;;15.95;100.00;101706.81;4995816;28;20043;-74
2023/07/17 06:31:50;;;;;;;;;;;;;;;16.02;100.00;101716.13;4994522;28;20076;-73
2023/07/17 06:34:16;;;;;;;;;;;;;;;16.16;100.00;101717.59;4996678;28;19933;-72
2023/07/17 06:36:41;;;;;;;;;;;;;;;16.13;100.00;101720.59;5000727;28;19944;-76
2023/07/17 06:39:07;;;;;;;;;;;;;;;16.30;100.00;101716.38;5002873;28;20473;-74
2023/07/17 06:41:32;;;;;;;;;;;;;;;16.44;100.00;101721.44;4999448;28;20360;-73
2023/07/17 06:43:57;;;;;;;;;;;;;;;16.48;100.00;101722.00;5003299;28;20367;-71
2023/07/17 06:46:22;;;;;;;;;;;;;;;16.47;100.00;101706.75;4996945;28;19930;-72
2023/07/17 06:48:47;;;;;;;;;;;;;;;16.60;100.00;101729.06;4999674;28;19968;-71
2023/07/17 06:51:13;;;;;;;;;;;;;;;16.54;100.00;101721.47;4992059;28;20059;-73
2023/07/17 06:53:38;;;;;;;;;;;;;;;16.56;100.00;101727.63;5005315;28;20898;-76
2023/07/17 06:56:03;;;;;;;;;;;;;;;16.69;100.00;101734.63;4997040;28;19940;-73
2023/07/17 06:58:29;;;;;;;;;;;;;;;17.02;100.00;101728.06;4995075;28;19975;-73
2023/07/17 07:00:57;;;;;;;;;;;;;;;17.09;100.00;101740.03;4994596;28;19968;-78
2023/07/17 07:03:23;;;;;;;;;;;;;;;17.05;100.00;101745.91;4991988;28;19988;-71
2023/07/17 07:05:56;;;;;;;;;;;;;;;17.21;100.00;101740.81;5007786;28;19925;-74
2023/07/17 07:08:26;;;;;;;;;;;;;;;17.03;100.00;101747.88;4992019;28;20257;-72
2023/07/17 07:10:52;;;;;;;;;;;;;;;17.02;100.00;101746.19;4982987;28;19925;-72
2023/07/17 07:13:17;;;;;;;;;;;;;;;17.39;100.00;101750.94;4997888;28;19925;-71
2023/07/17 07:15:42;;;;;;;;;;;;;;;17.64;100.00;101745.94;4980490;28;20636;-73
2023/07/17 07:18:07;;;;;;;;;;;;;;;17.61;100.00;101755.22;4990211;28;19932;-72
2023/07/17 07:20:32;;;;;;;;;;;;;;;17.52;100.00;101758.81;4994788;28;19983;-73
2023/07/17 07:22:58;;;;;;;;;;;;;;;17.45;100.00;101760.38;5000800;28;20009;-73
2023/07/17 07:25:23;;;;;;;;;;;;;;;17.44;100.00;101764.94;4996554;28;20031;-70
2023/07/17 07:27:48;;;;;;;;;;;;;;;17.60;100.00;101764.38;4975970;28;19927;-71
2023/07/17 07:30:14;;;;;;;;;;;;;;;17.57;100.00;101767.38;4994611;28;19931;-73
2023/07/17 07:32:40;;;;;;;;;;;;;;;17.51;100.00;101768.78;4997112;28;20007;-72
2023/07/17 07:35:06;;;;;;;;;;;;;;;17.59;100.00;101776.25;4997399;28;19925;-73
2023/07/17 07:37:31;;;;;;;;;;;;;;;17.32;100.00;101756.09;4978817;28;19928;-74
2023/07/17 07:39:56;;;;;;;;;;;;;;;17.60;100.00;101771.66;4996129;28;19925;-76
2023/07/17 07:42:21;;;;;;;;;;;;;;;17.87;100.00;101770.94;5007644;28;19922;-80
2023/07/17 07:44:47;;;;;;;;;;;;;;;17.88;100.00;101774.50;4985888;28;19929;-73
2023/07/17 07:47:12;;;;;;;;;;;;;;;17.98;100.00;101778.94;4976645;28;19940;-74
2023/07/17 07:49:37;;;;;;;;;;;;;;;18.08;100.00;101778.91;4996357;28;19936;-74
2023/07/17 07:52:02;;;;;;;;;;;;;;;18.01;100.00;101788.66;4998426;28;19948;-74
2023/07/17 07:54:27;;;;;;;;;;;;;;;18.02;100.00;101782.22;4994602;28;19921;-75
2023/07/17 07:56:53;;;;;;;;;;;;;;;17.69;100.00;101785.22;4996527;28;19964;-73
2023/07/17 07:59:18;;;;;;;;;;;;;;;17.96;100.00;101789.06;4997803;28;20364;-76
2023/07/17 08:01:43;;;;;;;;;;;;;;;18.14;100.00;101791.09;4996405;28;20390;-73
2023/07/17 08:04:08;;;;;;;;;;;;;;;17.92;100.00;101789.50;4994838;28;19925;-72
2023/07/17 08:06:34;;;;;;;;;;;;;;;18.06;100.00;101791.78;4996799;28;19968;-74
2023/07/17 08:08:59;;;;;;;;;;;;;;;18.15;100.00;101803.66;4994219;28;20021;-74
2023/07/17 08:11:24;;;;;;;;;;;;;;;17.71;100.00;101798.69;4992183;28;19968;-74
2023/07/17 08:13:50;;;;;;;;;;;;;;;17.67;100.00;101797.25;4998005;28;20016;-73
2023/07/17 08:16:15;;;;;;;;;;;;;;;17.83;100.00;101797.50;4996112;28;19932;-72
2023/07/17 08:18:40;;;;;;;;;;;;;;;18.06;100.00;101790.94;4996288;28;19925;-76
2023/07/17 08:21:06;;;;;;;;;;;;;;;18.21;100.00;101805.78;4997352;28;19921;-77
2023/07/17 08:23:31;;;;;;;;;;;;;;;18.40;100.00;101801.31;4996417;28;19934;-72
2023/07/17 08:25:56;;;;;;;;;;;;;;;18.40;100.00;101801.31;4996251;28;19922;-73
2023/07/17 08:28:21;;;;;;;;;;;;;;;18.24;100.00;101802.78;4978939;28;20157;-76
2023/07/17 08:30:47;;;;;;;;;;;;;;;18.31;100.00;101785.88;4996104;28;19921;-73
2023/07/17 08:33:12;;;;;;;;;;;;;;;18.70;100.00;101796.59;4978864;28;19921;-72
2023/07/17 08:35:37;;;;;;;;;;;;;;;18.84;100.00;101796.13;4996188;28;19921;-76
2023/07/17 08:38:03;;;;;;;;;;;;;;;18.78;100.00;101801.31;4997126;28;19971;-74
2023/07/17 08:40:28;;;;;;;;;;;;;;;18.83;100.00;101797.13;4975111;28;20012;-75
2023/07/17 08:42:53;;;;;;;;;;;;;;;18.69;100.00;101803.06;5006812;28;19952;-72
2023/07/17 08:45:20;;;;;;;;;;;;;;;18.87;100.00;101803.13;4976850;28;20362;-75
2023/07/17 08:47:45;;;;;;;;;;;;;;;18.87;100.00;101809.44;4978407;28;20369;-75
2023/07/17 08:50:10;;;;;;;;;;;;;;;18.91;100.00;101800.97;4973717;28;20494;-75
2023/07/17 08:52:35;;;;;;;;;;;;;;;18.72;100.00;101798.19;4976884;28;20047;-73
2023/07/17 08:55:01;;;;;;;;;;;;;;;19.37;100.00;101799.13;5010518;28;19944;-73
2023/07/17 08:57:26;;;;;;;;;;;;;;;19.54;100.00;101799.28;4995137;28;19932;-73
2023/07/17 08:59:51;;;;;;;;;;;;;;;19.93;100.00;101797.09;5001849;28;19925;-73
2023/07/17 09:02:16;;;;;;;;;;;;;;;19.69;100.00;101803.19;4976226;28;20430;-73
2023/07/17 09:04:42;;;;;;;;;;;;;;;19.41;100.00;101805.97;5005574;28;19999;-73
2023/07/17 09:07:07;;;;;;;;;;;;;;;19.01;100.00;101799.94;4983940;28;20052;-74
2023/07/17 09:09:32;;;;;;;;;;;;;;;19.08;100.00;101794.72;4995630;28;19989;-74
2023/07/17 09:12:07;;;;;;;;;;;;;;;19.27;100.00;101799.19;4996996;28;19925;-73
2023/07/17 09:14:33;;;;;;;;;;;;;;;19.52;100.00;101810.34;4998208;28;20080;-80
2023/07/17 09:17:02;;;;;;;;;;;;;;;19.09;100.00;101801.88;4995193;28;20379;-72
2023/07/17 09:19:28;;;;;;;;;;;;;;;19.30;100.00;101803.47;4990962;28;19929;-71
2023/07/17 09:21:57;;;;;;;;;;;;;;;19.28;100.00;101800.91;5000735;28;19928;-76
2023/07/17 09:24:22;;;;;;;;;;;;;;;19.16;100.00;101805.72;4994970;28;19925;-74
2023/07/17 09:26:54;;;;;;;;;;;;;;;19.23;100.00;101796.91;4989533;28;20327;-75
2023/07/17 09:29:21;;;;;;;;;;;;;;;19.42;100.00;101799.53;4978553;28;19921;-76
2023/07/17 09:31:46;;;;;;;;;;;;;;;19.81;97.81;101803.81;5005002;28;19957;-74
2023/07/17 09:34:12;;;;;;;;;;;;;;;19.97;99.71;101797.66;4997584;28;20424;-75
2023/07/17 09:36:37;;;;;;;;;;;;;;;19.89;100.00;101809.34;4996095;28;19931;-75
2023/07/17 09:39:04;;;;;;;;;;;;;;;19.96;99.42;101812.31;4991040;28;20341;-75
2023/07/17 09:41:30;;;;;;;;;;;;;;;19.97;99.46;101813.16;5004944;28;19933;-74
2023/07/17 09:44:05;;;;;;;;;;;;;;;19.98;96.21;101815.72;4992085;28;19936;-75
2023/07/17 09:46:31;;;;;;;;;;;;;;;20.11;93.98;101811.72;4993536;28;19933;-76
2023/07/17 09:48:56;;;;;;;;;;;;;;;19.90;93.49;101813.78;4994957;28;20525;-75
2023/07/17 09:51:22;;;;;;;;;;;;;;;19.86;93.31;101814.22;4991781;28;19922;-73
2023/07/17 09:53:47;;;;;;;;;;;;;;;20.05;90.96;101805.88;4995879;28;20147;-75
2023/07/17 09:56:16;;;;;;;;;;;;;;;20.22;95.12;101800.56;4993293;28;20465;-74
2023/07/17 09:58:50;;;;;;;;;;;;;;;20.37;88.73;101811.75;4995312;28;19933;-73
2023/07/17 10:01:19;;;;;;;;;;;;;;;20.61;86.23;101801.97;4976167;28;19936;-73
2023/07/17 10:03:46;;;;;;;;;;;;;;;20.50;91.92;101811.31;4990659;28;19926;-75
2023/07/17 10:06:11;;;;;;;;;;;;;;;20.34;89.08;101809.34;4976080;28;20274;-75
2023/07/17 10:08:37;;;;;;;;;;;;;;;20.55;87.34;101819.84;4978989;28;19930;-72
2023/07/17 10:11:03;;;;;;;;;;;;;;;21.10;86.84;101810.41;4990853;28;20303;-73
2023/07/17 10:13:28;;;;;;;;;;;;;;;21.32;84.27;101813.53;5011682;28;19926;-73
2023/07/17 10:15:53;;;;;;;;;;;;;;;21.21;86.77;101824.75;5008755;28;20320;-75
2023/07/17 10:18:19;;;;;;;;;;;;;;;21.01;84.15;101813.28;4998334;28;20292;-73
2023/07/17 10:20:54;;;;;;;;;;;;;;;21.15;88.82;101811.78;4976710;28;19929;-72
2023/07/17 10:23:26;;;;;;;;;;;;;;;21.20;84.45;101807.53;4982211;28;19925;-74
2023/07/17 10:25:51;;;;;;;;;;;;;;;21.54;81.67;101806.59;5000945;28;19925;-75
2023/07/17 10:28:28;;;;;;;;;;;;;;;21.75;80.33;101809.84;4979339;28;19930;-72
2023/07/17 10:30:54;;;;;;;;;;;;;;;22.07;79.03;101798.06;4996845;28;19925;-73
2023/07/17 10:33:20;;;;;;;;;;;;;;;21.97;72.76;101808.31;4997575;28;19926;-77
2023/07/17 10:35:46;;;;;;;;;;;;;;;21.41;73.89;101812.53;4995764;28;20041;-76
2023/07/17 10:38:11;;;;;;;;;;;;;;;21.06;83.64;101811.75;4997082;28;20008;-74
2023/07/17 10:40:36;;;;;;;;;;;;;;;21.85;75.43;101807.81;5010396;28;19925;-76
2023/07/17 10:43:11;;;;;;;;;;;;;;;21.47;75.19;101805.53;4999101;28;20353;-76
2023/07/17 10:45:37;;;;;;;;;;;;;;;21.95;71.67;101808.50;4975182;28;19981;-71
2023/07/17 10:48:02;;;;;;;;;;;;;;;21.71;69.06;101801.16;4980394;28;20350;-72
2023/07/17 10:50:27;;;;;;;;;;;;;;;21.45;67.49;101802.13;4995741;28;20233;-72
2023/07/17 10:52:53;;;;;;;;;;;;;;;21.78;68.46;101809.50;4997425;28;19921;-77
2023/07/17 10:55:18;;;;;;;;;;;;;;;21.17;68.85;101813.31;4999135;28;19972;-72
2023/07/17 10:57:43;;;;;;;;;;;;;;;20.84;70.42;101802.28;4997870;28;20016;-76
2023/07/17 11:00:10;;;;;;;;;;;;;;;21.66;74.16;101809.88;4981421;28;20016;-70
2023/07/17 11:02:35;;;;;;;;;;;;;;;21.90;72.46;101810.03;4994206;28;20527;-73
2023/07/17 11:05:03;;;;;;;;;;;;;;;21.67;67.35;101808.84;4979251;28;19930;-73
2023/07/17 11:07:31;;;;;;;;;;;;;;;21.71;69.85;101804.75;4995574;28;19936;-74
2023/07/17 11:09:57;;;;;;;;;;;;;;;22.68;62.89;101794.03;4979646;28;19926;-74
2023/07/17 11:12:24;;;;;;;;;;;;;;;23.31;61.16;101814.09;4978559;28;20163;-73
2023/07/17 11:14:52;;;;;;;;;;;;;;;22.39;63.47;101801.75;4974766;28;19921;-74
2023/07/17 11:17:18;;;;;;;;;;;;;;;22.08;62.07;101801.66;4995404;28;20367;-71
2023/07/17 11:19:44;;;;;;;;;;;;;;;22.34;59.74;101806.91;4996034;28;19971;-71
2023/07/17 11:22:09;;;;;;;;;;;;;;;21.92;65.28;101803.38;4978494;28;19925;-74
2023/07/17 11:24:34;;;;;;;;;;;;;;;22.90;66.46;101804.19;4979733;28;19925;-71
2023/07/17 11:27:00;;;;;;;;;;;;;;;21.80;68.48;101810.19;4994842;28;20456;-71
2023/07/17 11:29:25;;;;;;;;;;;;;;;22.88;68.20;101797.19;5005493;28;20371;-72
2023/07/17 11:31:57;;;;;;;;;;;;;;;23.32;64.52;101801.25;4978246;28;20347;-73
2023/07/17 11:34:22;;;;;;;;;;;;;;;22.38;61.31;101791.84;4989708;28;20003;-78
2023/07/17 11:36:47;;;;;;;;;;;;;;;22.72;64.34;101795.38;5003154;28;20462;-73
2023/07/17 11:39:13;;;;;;;;;;;;;;;23.92;59.96;101791.38;4997164;28;19991;-75
2023/07/17 11:41:43;;;;;;;;;;;;;;;24.33;55.37;101797.53;4997234;28;20504;-74
2023/07/17 11:44:08;;;;;;;;;;;;;;;24.95;52.60;101790.78;4980912;28;20308;-74
2023/07/17 11:46:33;;;;;;;;;;;;;;;24.51;53.67;101808.13;4996877;28;20253;-79
2023/07/17 11:48:59;;;;;;;;;;;;;;;24.91;57.80;101791.38;4996029;28;19971;-73
2023/07/17 11:51:25;;;;;;;;;;;;;;;25.61;53.03;101786.25;4996996;28;20382;-73
2023/07/17 11:53:54;;;;;;;;;;;;;;;26.74;46.96;101781.78;4979392;28;19925;-73
2023/07/17 11:56:20;;;;;;;;;;;;;;;27.06;51.47;101793.16;4997256;28;20020;-71
2023/07/17 11:58:50;;;;;;;;;;;;;;;26.10;45.10;101790.03;4995990;28;19926;-72
2023/07/17 12:01:15;;;;;;;;;;;;;;;24.48;48.05;101792.91;4991922;28;19971;-73
2023/07/17 12:03:40;;;;;;;;;;;;;;;23.55;51.33;101779.34;4993705;28;20290;-74
2023/07/17 12:06:05;;;;;;;;;;;;;;;23.33;56.94;101781.91;5002663;28;19926;-73
2023/07/17 12:08:31;;;;;;;;;;;;;;;24.29;51.80;101786.06;4993706;28;19948;-74
2023/07/17 12:10:57;;;;;;;;;;;;;;;25.36;48.66;101785.75;4995549;28;19995;-74
2023/07/17 12:13:22;;;;;;;;;;;;;;;25.79;46.13;101780.28;4995998;28;19937;-74
2023/07/17 12:15:47;;;;;;;;;;;;;;;25.37;49.07;101777.31;5006679;28;19930;-73
2023/07/17 12:18:12;;;;;;;;;;;;;;;25.89;51.67;101782.69;4997183;28;19960;-73
2023/07/17 12:20:38;;;;;;;;;;;;;;;25.68;53.10;101783.56;4994426;28;19933;-74